Time;durP1;ratioP1;P1;durP2;ratioP2;P2;SDS_P1;SDS_P2;PMS_P1;PMS_P2;Temp;Humidity;BMP_temperature;BMP_pressure;BME280_temperature;BME280_humidity;BME280_pressure;Samples;Min_cycle;Max_cycle;Signal;HPM_P1;HPM_P2
2023/09/01 00:01:39;;;;;;;3.93;2.63;;;16.70;99.90;;;;;;4990545;28;21047;-69
2023/09/01 00:04:06;;;;;;;3.37;2.40;;;16.70;99.90;;;;;;4990797;28;20492;-69
2023/09/01 00:06:33;;;;;;;3.00;2.60;;;16.70;99.90;;;;;;4992140;28;20482;-70
2023/09/01 00:09:01;;;;;;;5.67;2.60;;;16.70;99.90;;;;;;4990370;28;21043;-69
2023/09/01 00:11:28;;;;;;;6.93;2.50;;;16.60;99.90;;;;;;4988425;28;20471;-70
2023/09/01 00:13:55;;;;;;;4.43;2.57;;;16.70;99.90;;;;;;4993631;28;20829;-69
2023/09/01 00:16:22;;;;;;;2.97;2.20;;;16.80;99.90;;;;;;4983476;28;20984;-69
2023/09/01 00:18:49;;;;;;;7.20;2.87;;;16.80;99.90;;;;;;5000486;28;20744;-71
2023/09/01 00:21:17;;;;;;;3.03;2.20;;;16.80;99.90;;;;;;4986916;28;20485;-70
2023/09/01 00:23:44;;;;;;;3.80;2.27;;;16.90;99.90;;;;;;4989701;28;21030;-69
2023/09/01 00:26:12;;;;;;;4.47;2.33;;;16.90;99.90;;;;;;4989738;28;20469;-71
2023/09/01 00:28:39;;;;;;;4.23;2.70;;;16.90;99.90;;;;;;4989137;28;20483;-69
2023/09/01 00:31:06;;;;;;;2.10;1.73;;;17.00;99.90;;;;;;4985593;28;20516;-70
2023/09/01 00:33:34;;;;;;;5.07;2.73;;;17.00;99.90;;;;;;4988673;28;20500;-70
2023/09/01 00:36:01;;;;;;;5.07;2.90;;;17.10;99.90;;;;;;4987727;28;20488;-68
2023/09/01 00:38:31;;;;;;;2.33;1.80;;;17.10;99.90;;;;;;5001236;28;20542;-71
2023/09/01 00:40:57;;;;;;;4.10;2.50;;;17.10;99.90;;;;;;4989420;28;20489;-70
2023/09/01 00:43:26;;;;;;;4.20;2.73;;;17.10;99.90;;;;;;4987664;28;20488;-68
2023/09/01 00:45:53;;;;;;;5.07;2.43;;;17.20;99.90;;;;;;4991735;28;20757;-69
2023/09/01 00:48:20;;;;;;;8.53;5.00;;;17.20;99.90;;;;;;4987977;28;20568;-71
2023/09/01 00:50:50;;;;;;;7.00;3.63;;;17.10;99.90;;;;;;4988442;28;20485;-69
2023/09/01 00:53:18;;;;;;;7.50;3.00;;;17.20;99.90;;;;;;4987632;28;20559;-69
2023/09/01 00:55:44;;;;;;;7.37;2.03;;;17.20;99.90;;;;;;4988535;28;20490;-68
2023/09/01 00:58:12;;;;;;;3.30;2.70;;;17.10;99.90;;;;;;4993236;28;20996;-71
2023/09/01 01:00:40;;;;;;;4.97;2.87;;;17.20;99.90;;;;;;4992388;28;20459;-69
2023/09/01 01:03:08;;;;;;;3.23;2.47;;;17.20;99.90;;;;;;4993714;28;20465;-69
2023/09/01 01:05:46;;;;;;;2.43;1.83;;;17.30;99.90;;;;;;4994001;28;20491;-70
2023/09/01 01:08:23;;;;;;;5.43;2.27;;;17.30;99.90;;;;;;4982436;28;21043;-69
2023/09/01 01:10:53;;;;;;;3.60;3.30;;;17.40;99.90;;;;;;4992437;28;20476;-70
2023/09/01 01:13:23;;;;;;;4.30;3.00;;;17.30;99.90;;;;;;4993014;28;20474;-70
2023/09/01 01:15:55;;;;;;;7.00;2.30;;;17.40;99.90;;;;;;4993082;28;21046;-70
2023/09/01 01:18:26;;;;;;;6.50;2.43;;;17.30;99.90;;;;;;4994119;28;20476;-69
2023/09/01 01:21:04;;;;;;;5.37;2.40;;;17.40;99.90;;;;;;4992042;28;21044;-69
2023/09/01 01:23:34;;;;;;;12.93;2.30;;;17.50;99.90;;;;;;4991137;28;20598;-69
2023/09/01 01:26:01;;;;;;;4.97;2.60;;;17.50;99.90;;;;;;4993900;28;20469;-69
2023/09/01 01:28:28;;;;;;;6.33;2.10;;;17.50;99.90;;;;;;4994008;28;20477;-69
2023/09/01 01:30:55;;;;;;;1.97;1.77;;;17.60;99.90;;;;;;4992493;28;21051;-69
2023/09/01 01:33:45;;;;;;;5.33;2.63;;;17.60;99.90;;;;;;4992272;28;20501;-68
2023/09/01 01:36:19;;;;;;;3.23;2.90;;;17.60;99.90;;;;;;4984570;28;20475;-68
2023/09/01 01:38:52;;;;;;;3.50;2.00;;;17.60;99.90;;;;;;4996451;28;20852;-69
2023/09/01 01:41:25;;;;;;;4.00;3.13;;;17.70;99.90;;;;;;4988167;28;20476;-69
2023/09/01 01:43:56;;;;;;;5.27;3.00;;;17.60;99.90;;;;;;4990787;28;20563;-70
2023/09/01 01:46:24;;;;;;;4.20;3.07;;;17.60;99.90;;;;;;4992409;28;21221;-70
2023/09/01 01:48:51;;;;;;;3.60;3.10;;;17.70;99.90;;;;;;4983987;28;20489;-70
2023/09/01 01:51:18;;;;;;;6.13;3.67;;;17.70;99.90;;;;;;4990148;28;20511;-69
2023/09/01 01:53:45;;;;;;;3.97;3.57;;;17.70;99.90;;;;;;4997179;28;20578;-72
2023/09/01 01:56:14;;;;;;;5.77;4.57;;;17.80;99.90;;;;;;4997199;28;20480;-69
2023/09/01 01:58:41;;;;;;;4.73;3.90;;;17.70;99.90;;;;;;4990828;28;20528;-70
2023/09/01 02:01:08;;;;;;;4.73;4.13;;;17.80;99.90;;;;;;4984777;28;20558;-70
2023/09/01 02:03:35;;;;;;;4.83;3.60;;;17.90;99.90;;;;;;4986194;28;20488;-71
2023/09/01 02:06:02;;;;;;;3.33;2.90;;;17.90;99.90;;;;;;4994696;28;20496;-73
2023/09/01 02:08:30;;;;;;;4.30;3.30;;;18.00;99.90;;;;;;4995109;28;20482;-69
2023/09/01 02:10:57;;;;;;;2.57;2.03;;;17.90;99.90;;;;;;4985550;28;21363;-70
2023/09/01 02:13:25;;;;;;;3.07;2.50;;;18.00;99.90;;;;;;4982504;28;20748;-70
2023/09/01 02:15:53;;;;;;;11.17;2.87;;;18.00;99.90;;;;;;4989967;28;20491;-71
2023/09/01 02:18:19;;;;;;;4.73;2.67;;;18.00;99.90;;;;;;4991236;28;20466;-70
2023/09/01 02:20:47;;;;;;;5.63;3.10;;;18.00;99.90;;;;;;4998629;28;20485;-68
2023/09/01 02:23:16;;;;;;;2.80;2.17;;;18.00;99.90;;;;;;4985373;28;20863;-69
2023/09/01 02:25:43;;;;;;;2.47;1.80;;;18.00;99.90;;;;;;4991568;28;20489;-69
2023/09/01 02:28:10;;;;;;;6.53;2.90;;;18.00;99.90;;;;;;4991739;28;20486;-68
2023/09/01 02:30:38;;;;;;;2.30;1.80;;;18.00;99.90;;;;;;4970472;28;20536;-75
2023/09/01 02:33:06;;;;;;;3.93;2.53;;;18.00;99.90;;;;;;4983837;28;20490;-69
2023/09/01 02:35:33;;;;;;;3.50;2.27;;;18.00;99.90;;;;;;4996089;28;20488;-70
2023/09/01 02:38:00;;;;;;;2.40;2.10;;;18.10;99.90;;;;;;5000586;28;20486;-69
2023/09/01 02:40:27;;;;;;;5.50;2.73;;;18.10;99.90;;;;;;4986148;28;20482;-69
2023/09/01 02:42:53;;;;;;;3.30;1.90;;;18.10;99.90;;;;;;4982596;28;20485;-70
2023/09/01 02:45:20;;;;;;;5.60;2.27;;;18.20;99.90;;;;;;4987264;28;20491;-69
2023/09/01 02:47:49;;;;;;;4.23;1.83;;;18.20;99.90;;;;;;5000002;28;21045;-69
2023/09/01 02:50:15;;;;;;;2.63;1.70;;;18.30;99.90;;;;;;4985873;28;21384;-69
2023/09/01 02:52:42;;;;;;;2.23;1.77;;;18.40;99.90;;;;;;4983296;28;21023;-68
2023/09/01 02:55:10;;;;;;;2.53;1.67;;;18.30;99.90;;;;;;4983565;28;20892;-68
2023/09/01 02:57:37;;;;;;;5.60;2.57;;;18.30;99.90;;;;;;4994039;28;20479;-68
2023/09/01 03:00:14;;;;;;;5.03;2.30;;;18.20;99.90;;;;;;4995983;28;20569;-69
2023/09/01 03:02:43;;;;;;;2.40;1.87;;;18.20;99.90;;;;;;4973146;28;20502;-72
2023/09/01 03:05:11;;;;;;;2.27;1.73;;;18.20;99.90;;;;;;4987164;28;20637;-68
2023/09/01 03:07:39;;;;;;;2.70;1.77;;;18.20;99.90;;;;;;5006658;28;20522;-73
2023/09/01 03:10:07;;;;;;;3.53;1.77;;;18.30;99.90;;;;;;4990278;28;20489;-68
2023/09/01 03:12:35;;;;;;;2.60;1.60;;;18.20;99.90;;;;;;4990284;28;20832;-69
2023/09/01 03:15:03;;;;;;;3.87;1.90;;;18.40;99.90;;;;;;4977251;28;20489;-68
2023/09/01 03:17:30;;;;;;;6.33;1.53;;;18.30;99.90;;;;;;4988664;28;20957;-69
2023/09/01 03:19:56;;;;;;;12.97;2.43;;;18.40;99.90;;;;;;4988966;28;20488;-71
2023/09/01 03:22:25;;;;;;;2.20;1.40;;;18.40;99.90;;;;;;4986981;28;20482;-69
2023/09/01 03:24:53;;;;;;;2.63;1.77;;;18.50;99.90;;;;;;4977483;28;20505;-68
2023/09/01 03:27:21;;;;;;;3.40;1.70;;;18.50;99.90;;;;;;4986405;28;20465;-69
2023/09/01 03:29:51;;;;;;;2.30;1.70;;;18.50;99.90;;;;;;4992283;28;20486;-69
2023/09/01 03:32:18;;;;;;;2.77;1.63;;;18.50;99.90;;;;;;4982983;28;20581;-68
2023/09/01 03:34:45;;;;;;;3.70;1.97;;;18.50;99.90;;;;;;4984962;28;20940;-69
2023/09/01 03:37:12;;;;;;;3.73;1.67;;;18.40;99.90;;;;;;4991035;28;20484;-67
2023/09/01 03:39:40;;;;;;;4.03;1.60;;;18.40;99.90;;;;;;4993129;28;20474;-68
2023/09/01 03:42:08;;;;;;;2.77;1.70;;;18.40;99.90;;;;;;4991011;28;20470;-67
2023/09/01 03:44:35;;;;;;;3.53;2.00;;;18.30;99.90;;;;;;4983692;28;20482;-67
2023/09/01 03:47:02;;;;;;;3.53;2.30;;;18.30;99.90;;;;;;4990494;28;20481;-66
2023/09/01 03:49:29;;;;;;;3.00;2.40;;;18.30;99.90;;;;;;4991392;28;20482;-66
2023/09/01 03:51:56;;;;;;;4.37;2.23;;;18.30;99.90;;;;;;4986256;28;20502;-68
2023/09/01 03:54:23;;;;;;;4.80;2.37;;;18.20;99.90;;;;;;4993105;28;20481;-69
2023/09/01 03:56:52;;;;;;;6.33;2.57;;;18.30;99.90;;;;;;4994267;28;20794;-67
2023/09/01 03:59:20;;;;;;;2.40;2.10;;;18.30;99.90;;;;;;5000592;28;20803;-66
2023/09/01 04:01:47;;;;;;;2.30;1.53;;;18.30;99.90;;;;;;4980859;28;20457;-68
2023/09/01 04:04:15;;;;;;;2.20;1.87;;;18.40;99.90;;;;;;5008752;28;20502;-68
2023/09/01 04:06:42;;;;;;;3.27;2.17;;;18.30;99.90;;;;;;4969310;28;20519;-68
2023/09/01 04:09:09;;;;;;;2.90;2.10;;;18.30;99.90;;;;;;4989297;28;20535;-68
2023/09/01 04:11:36;;;;;;;3.70;1.40;;;18.30;99.90;;;;;;4989496;28;20446;-68
2023/09/01 04:14:06;;;;;;;2.90;1.67;;;18.30;99.90;;;;;;4984348;28;20470;-68
2023/09/01 04:16:33;;;;;;;3.90;1.93;;;18.30;99.90;;;;;;4987003;28;21300;-67
2023/09/01 04:19:00;;;;;;;4.73;1.67;;;18.30;99.90;;;;;;4991187;28;20567;-68
2023/09/01 04:21:27;;;;;;;3.23;1.73;;;18.40;99.90;;;;;;4988604;28;20896;-68
2023/09/01 04:23:54;;;;;;;3.70;2.90;;;18.30;99.90;;;;;;4999340;28;20475;-67
2023/09/01 04:26:21;;;;;;;3.20;2.47;;;18.20;99.90;;;;;;4989626;28;20489;-68
2023/09/01 04:28:48;;;;;;;4.70;1.73;;;18.30;99.90;;;;;;4990539;28;20485;-68
2023/09/01 04:31:21;;;;;;;3.73;2.07;;;18.40;99.90;;;;;;4988650;28;20479;-66
2023/09/01 04:33:48;;;;;;;7.73;1.90;;;18.40;99.90;;;;;;4970662;28;20576;-67
2023/09/01 04:36:15;;;;;;;6.60;2.33;;;18.30;99.90;;;;;;5011520;28;20698;-67
2023/09/01 04:38:42;;;;;;;3.80;2.67;;;18.40;99.90;;;;;;4987396;28;21336;-68
2023/09/01 04:41:09;;;;;;;4.20;3.70;;;18.40;99.90;;;;;;4990452;28;20520;-67
2023/09/01 04:43:35;;;;;;;3.80;2.37;;;18.40;99.90;;;;;;4996200;28;21000;-67
2023/09/01 04:46:02;;;;;;;4.10;2.17;;;18.20;99.90;;;;;;4982322;28;20484;-67
2023/09/01 04:48:31;;;;;;;3.70;2.40;;;18.10;99.90;;;;;;5006407;28;20995;-69
2023/09/01 04:51:00;;;;;;;2.20;2.00;;;18.20;99.90;;;;;;4992747;28;21158;-69
2023/09/01 04:53:27;;;;;;;4.27;2.90;;;18.20;99.90;;;;;;4989331;28;21154;-69
2023/09/01 04:55:54;;;;;;;3.20;1.67;;;18.20;99.90;;;;;;4985388;28;20818;-72
2023/09/01 04:58:21;;;;;;;2.77;1.80;;;18.20;99.90;;;;;;4993189;28;20556;-70
2023/09/01 05:00:48;;;;;;;3.33;2.30;;;18.20;99.90;;;;;;4993639;28;21177;-70
2023/09/01 05:03:15;;;;;;;6.33;2.10;;;18.30;99.90;;;;;;4985546;28;20456;-69
2023/09/01 05:05:43;;;;;;;5.33;2.93;;;18.20;99.90;;;;;;4986562;28;20486;-69
2023/09/01 05:08:10;;;;;;;4.50;2.80;;;18.30;99.90;;;;;;4994544;28;20894;-71
2023/09/01 05:10:37;;;;;;;3.40;3.10;;;18.20;99.90;;;;;;4995504;28;20485;-69
2023/09/01 05:13:04;;;;;;;3.60;2.63;;;18.20;99.90;;;;;;4988389;28;20481;-69
2023/09/01 05:15:31;;;;;;;2.90;2.20;;;18.20;99.90;;;;;;4985911;28;20473;-68
2023/09/01 05:17:58;;;;;;;2.40;2.00;;;18.20;99.90;;;;;;4993850;28;20489;-69
2023/09/01 05:20:25;;;;;;;6.70;2.37;;;18.20;99.90;;;;;;4990726;28;20505;-68
2023/09/01 05:22:53;;;;;;;3.17;2.10;;;18.20;99.90;;;;;;4991120;28;20576;-68
2023/09/01 05:25:20;;;;;;;5.40;2.70;;;18.20;99.90;;;;;;4989357;28;20486;-68
2023/09/01 05:27:47;;;;;;;3.97;2.00;;;18.20;99.90;;;;;;4991636;28;20603;-71
2023/09/01 05:30:14;;;;;;;3.20;2.17;;;18.20;99.90;;;;;;4982822;28;20500;-73
2023/09/01 05:32:41;;;;;;;3.50;1.73;;;18.30;99.90;;;;;;4993385;28;20568;-71
2023/09/01 05:35:09;;;;;;;5.80;1.90;;;18.30;99.90;;;;;;4985153;28;22780;-70
2023/09/01 05:37:36;;;;;;;2.60;2.00;;;18.30;99.90;;;;;;4988518;28;20578;-69
2023/09/01 05:40:05;;;;;;;3.73;2.07;;;18.40;99.90;;;;;;4996529;28;20495;-70
2023/09/01 05:42:32;;;;;;;2.10;1.40;;;18.40;99.90;;;;;;4995645;28;20477;-70
2023/09/01 05:44:59;;;;;;;3.20;1.90;;;18.40;99.90;;;;;;4992677;28;20525;-70
2023/09/01 05:47:26;;;;;;;2.67;1.77;;;18.40;99.90;;;;;;5001081;28;21293;-70
2023/09/01 05:49:53;;;;;;;4.10;1.60;;;18.30;99.90;;;;;;4987100;28;20478;-70
2023/09/01 05:52:20;;;;;;;4.80;2.33;;;18.30;99.90;;;;;;4992405;28;20489;-70
2023/09/01 05:54:46;;;;;;;2.30;1.93;;;18.30;99.90;;;;;;4980357;28;20466;-70
2023/09/01 05:57:15;;;;;;;2.60;2.40;;;18.30;99.90;;;;;;5007807;28;20497;-69
2023/09/01 05:59:42;;;;;;;3.23;2.33;;;18.30;99.90;;;;;;4993172;28;20478;-70
2023/09/01 06:02:09;;;;;;;3.43;2.30;;;18.40;99.90;;;;;;4986839;28;20580;-70
2023/09/01 06:04:37;;;;;;;4.53;2.23;;;18.40;99.90;;;;;;4983736;28;20995;-70
2023/09/01 06:07:05;;;;;;;2.57;1.83;;;18.50;99.90;;;;;;4998279;28;20827;-69
2023/09/01 06:09:34;;;;;;;2.60;2.27;;;18.50;99.90;;;;;;4996775;28;21158;-69
2023/09/01 06:12:01;;;;;;;4.90;2.07;;;18.50;99.90;;;;;;4973975;28;20486;-70
2023/09/01 06:14:30;;;;;;;3.07;2.23;;;18.50;99.90;;;;;;4991054;28;20581;-69
2023/09/01 06:16:56;;;;;;;2.80;2.20;;;18.50;99.90;;;;;;4987470;28;20492;-69
2023/09/01 06:19:23;;;;;;;4.83;1.67;;;18.60;99.90;;;;;;4983996;28;20871;-68
2023/09/01 06:21:50;;;;;;;3.17;2.37;;;18.50;99.90;;;;;;4985632;28;20485;-71
2023/09/01 06:24:18;;;;;;;2.33;2.03;;;18.60;99.90;;;;;;4993563;28;20488;-69
2023/09/01 06:26:45;;;;;;;4.33;1.93;;;18.70;99.90;;;;;;4990676;28;20483;-68
2023/09/01 06:29:12;;;;;;;5.67;2.30;;;18.70;99.90;;;;;;4998377;28;20488;-69
2023/09/01 06:31:40;;;;;;;2.80;2.10;;;18.70;99.90;;;;;;4986616;28;20486;-68
2023/09/01 06:34:07;;;;;;;2.60;1.70;;;18.70;99.90;;;;;;4978046;28;20498;-70
2023/09/01 06:36:33;;;;;;;3.73;2.53;;;18.70;99.90;;;;;;4988781;28;20486;-68
2023/09/01 06:39:00;;;;;;;5.23;2.10;;;18.70;99.90;;;;;;4986482;28;20482;-68
2023/09/01 06:41:27;;;;;;;2.23;1.67;;;18.80;99.90;;;;;;4983982;28;20489;-68
2023/09/01 06:43:54;;;;;;;4.40;1.73;;;18.70;99.90;;;;;;4995223;28;20487;-68
2023/09/01 06:46:21;;;;;;;3.60;2.10;;;18.80;99.90;;;;;;4984182;28;20851;-68
2023/09/01 06:48:49;;;;;;;3.37;2.30;;;18.90;99.90;;;;;;5000762;28;20464;-68
2023/09/01 06:51:17;;;;;;;2.40;1.60;;;18.90;99.90;;;;;;4994689;28;20522;-68
2023/09/01 06:53:44;;;;;;;2.40;1.90;;;19.00;99.90;;;;;;4985113;28;20558;-68
2023/09/01 06:56:11;;;;;;;2.67;2.07;;;19.00;99.90;;;;;;4986892;28;20481;-68
2023/09/01 06:58:38;;;;;;;3.47;2.03;;;19.10;99.90;;;;;;5000190;28;20490;-68
2023/09/01 07:01:08;;;;;;;1.90;1.57;;;19.00;99.90;;;;;;4987163;28;20483;-68
2023/09/01 07:03:35;;;;;;;4.83;2.23;;;19.00;99.90;;;;;;4990373;28;20491;-67
2023/09/01 07:06:04;;;;;;;2.10;1.50;;;19.00;99.90;;;;;;5001551;28;20603;-70
2023/09/01 07:08:31;;;;;;;5.00;2.77;;;18.90;99.90;;;;;;5002433;28;20850;-67
2023/09/01 07:11:01;;;;;;;2.77;1.80;;;18.90;99.90;;;;;;4993786;28;20488;-69
2023/09/01 07:13:28;;;;;;;3.17;1.67;;;19.10;99.90;;;;;;4989076;28;20905;-70
2023/09/01 07:15:55;;;;;;;4.43;1.83;;;19.10;99.90;;;;;;4985186;28;20466;-72
2023/09/01 07:18:23;;;;;;;4.03;1.77;;;19.10;99.90;;;;;;4993108;28;20473;-68
2023/09/01 07:20:50;;;;;;;9.23;2.60;;;19.10;99.90;;;;;;4981863;28;20581;-69
2023/09/01 07:23:19;;;;;;;4.43;2.00;;;19.10;99.90;;;;;;4994960;28;20474;-69
2023/09/01 07:25:46;;;;;;;1.90;1.60;;;19.10;99.90;;;;;;4986509;28;20483;-68
2023/09/01 07:28:13;;;;;;;3.17;2.60;;;19.10;99.90;;;;;;4997269;28;20472;-70
2023/09/01 07:30:40;;;;;;;2.10;1.80;;;19.20;99.90;;;;;;4992902;28;20545;-69
2023/09/01 07:33:07;;;;;;;1.90;1.70;;;19.20;99.90;;;;;;4977303;28;20482;-68
2023/09/01 07:35:34;;;;;;;3.23;2.30;;;19.30;99.90;;;;;;5001479;28;20581;-69
2023/09/01 07:38:02;;;;;;;2.23;2.03;;;19.20;99.90;;;;;;4987356;28;20473;-68
2023/09/01 07:40:32;;;;;;;2.50;2.00;;;19.30;99.90;;;;;;4988986;28;20568;-68
2023/09/01 07:42:59;;;;;;;2.77;2.00;;;19.50;99.90;;;;;;4992788;28;20543;-67
2023/09/01 07:45:26;;;;;;;2.80;2.50;;;19.50;99.90;;;;;;4986314;28;20814;-67
2023/09/01 07:47:54;;;;;;;2.10;1.70;;;19.70;99.90;;;;;;4998415;28;20589;-68
2023/09/01 07:50:23;;;;;;;5.93;1.97;;;19.90;99.90;;;;;;5000045;28;20492;-68
2023/09/01 07:52:50;;;;;;;3.27;1.73;;;19.90;99.90;;;;;;4999678;28;20562;-70
2023/09/01 07:55:17;;;;;;;4.17;2.47;;;19.90;99.90;;;;;;4980530;28;20818;-67
2023/09/01 07:57:45;;;;;;;2.83;1.90;;;19.90;99.90;;;;;;4988386;28;20486;-68
2023/09/01 08:00:13;;;;;;;2.70;1.60;;;19.90;99.90;;;;;;4989097;28;20474;-68
2023/09/01 08:02:41;;;;;;;3.63;2.40;;;20.00;99.90;;;;;;4984851;28;20485;-69
2023/09/01 08:05:08;;;;;;;5.60;1.80;;;20.10;99.90;;;;;;4984441;28;20535;-68
2023/09/01 08:07:37;;;;;;;3.50;2.30;;;20.00;99.90;;;;;;4997015;28;20486;-75
2023/09/01 08:10:05;;;;;;;8.20;2.47;;;20.00;99.90;;;;;;4999857;28;20481;-68
2023/09/01 08:12:32;;;;;;;3.60;1.80;;;20.00;99.90;;;;;;4988844;28;20478;-68
2023/09/01 08:15:00;;;;;;;3.50;1.80;;;19.90;99.90;;;;;;4992054;28;20547;-68
2023/09/01 08:17:27;;;;;;;3.33;1.60;;;19.80;99.90;;;;;;4998519;28;20792;-67
2023/09/01 08:19:54;;;;;;;2.90;2.57;;;19.80;99.90;;;;;;4987853;28;20568;-66
2023/09/01 08:22:21;;;;;;;3.10;2.10;;;19.70;99.90;;;;;;4990068;28;20946;-67
2023/09/01 08:24:48;;;;;;;2.30;1.50;;;19.90;99.90;;;;;;4985016;28;20457;-67
2023/09/01 08:27:15;;;;;;;2.33;1.90;;;19.90;99.90;;;;;;4994843;28;20972;-67
2023/09/01 08:29:42;;;;;;;2.80;1.17;;;20.00;99.90;;;;;;4988552;28;20834;-68
2023/09/01 08:32:11;;;;;;;7.63;1.87;;;20.00;99.90;;;;;;4991737;28;20440;-66
2023/09/01 08:34:38;;;;;;;2.60;1.47;;;20.00;99.90;;;;;;4987052;28;20489;-67
2023/09/01 08:37:05;;;;;;;1.80;1.10;;;20.00;99.90;;;;;;4993415;28;20535;-68
2023/09/01 08:39:33;;;;;;;2.63;1.23;;;20.00;99.90;;;;;;4995697;28;20452;-67
2023/09/01 08:42:00;;;;;;;1.90;1.40;;;20.00;99.90;;;;;;4985274;28;20478;-68
2023/09/01 08:44:28;;;;;;;4.07;1.50;;;19.90;99.90;;;;;;4986407;28;20933;-66
2023/09/01 08:46:57;;;;;;;1.93;1.20;;;19.70;99.90;;;;;;4998639;28;20589;-66
2023/09/01 08:49:27;;;;;;;2.57;1.60;;;19.70;99.90;;;;;;4984864;28;20472;-67
2023/09/01 08:51:55;;;;;;;2.40;1.70;;;19.50;99.90;;;;;;4996241;28;20892;-67
2023/09/01 08:54:24;;;;;;;2.27;1.30;;;19.50;99.90;;;;;;4985758;28;20532;-67
2023/09/01 08:56:51;;;;;;;3.33;1.90;;;19.40;99.90;;;;;;4991834;28;20475;-68
2023/09/01 08:59:18;;;;;;;2.03;1.23;;;19.50;99.90;;;;;;4987147;28;20463;-68
2023/09/01 09:01:47;;;;;;;2.10;1.67;;;19.50;99.90;;;;;;4995219;28;20493;-67
2023/09/01 09:04:14;;;;;;;2.23;1.50;;;19.50;99.90;;;;;;4991391;28;21376;-68
2023/09/01 09:06:42;;;;;;;2.73;1.70;;;19.60;99.90;;;;;;4991646;28;20485;-68
2023/09/01 09:09:13;;;;;;;4.43;1.17;;;19.70;99.90;;;;;;4995506;28;20467;-69
2023/09/01 09:11:54;;;;;;;2.87;1.93;;;19.70;99.90;;;;;;5000180;28;20493;-70
2023/09/01 09:14:21;;;;;;;3.50;1.60;;;19.80;99.90;;;;;;4988033;28;20472;-68
2023/09/01 09:16:54;;;;;;;2.07;1.27;;;19.80;99.90;;;;;;4991863;28;20568;-69
2023/09/01 09:19:22;;;;;;;4.20;1.60;;;19.90;99.90;;;;;;4998994;28;20480;-69
2023/09/01 09:22:03;;;;;;;2.10;1.60;;;19.90;99.90;;;;;;4994729;28;20489;-68
2023/09/01 09:24:36;;;;;;;4.53;1.67;;;19.80;99.90;;;;;;4981090;28;20460;-68
2023/09/01 09:27:05;;;;;;;4.50;2.17;;;19.80;99.90;;;;;;4970589;28;20491;-70
2023/09/01 09:29:40;;;;;;;2.10;1.40;;;19.90;99.90;;;;;;4999437;28;20484;-69
2023/09/01 09:32:17;;;;;;;2.37;1.60;;;20.10;99.90;;;;;;4990831;28;20474;-70
2023/09/01 09:35:04;;;;;;;2.13;1.77;;;20.10;99.90;;;;;;4985492;28;20482;-76
2023/09/01 09:37:33;;;;;;;2.47;1.80;;;20.10;99.90;;;;;;4994354;28;20462;-69
2023/09/01 09:40:14;;;;;;;2.83;1.67;;;20.20;99.90;;;;;;4995885;28;20451;-69
2023/09/01 09:42:43;;;;;;;2.20;1.37;;;20.30;99.90;;;;;;4975421;28;20678;-73
2023/09/01 09:45:28;;;;;;;1.87;1.33;;;20.40;99.90;;;;;;5011457;28;20496;-69
2023/09/01 09:47:56;;;;;;;2.90;1.83;;;20.50;99.90;;;;;;4994847;28;20469;-74
2023/09/01 09:50:25;;;;;;;2.17;1.23;;;20.80;99.90;;;;;;4998893;28;20568;-75
2023/09/01 09:52:58;;;;;;;2.47;1.50;;;21.00;99.90;;;;;;5001141;28;20508;-70
2023/09/01 09:55:26;;;;;;;3.40;1.50;;;21.20;99.90;;;;;;4995478;28;20539;-69
2023/09/01 09:57:58;;;;;;;2.20;1.30;;;21.30;99.90;;;;;;4987392;28;21198;-71
2023/09/01 10:00:28;;;;;;;3.80;2.37;;;21.40;99.90;;;;;;4989685;28;20497;-68
2023/09/01 10:03:00;;;;;;;3.40;2.17;;;21.50;99.90;;;;;;4989660;28;20494;-69
2023/09/01 10:05:32;;;;;;;2.77;1.60;;;21.50;99.90;;;;;;4990356;28;20858;-71
2023/09/01 10:08:03;;;;;;;5.83;1.60;;;21.70;99.90;;;;;;4996862;28;20456;-70
2023/09/01 10:10:33;;;;;;;3.33;2.20;;;21.70;99.90;;;;;;4986544;28;20471;-73
2023/09/01 10:13:04;;;;;;;4.10;1.70;;;21.70;99.90;;;;;;4988858;28;20977;-69
2023/09/01 10:15:33;;;;;;;2.20;1.30;;;21.70;99.90;;;;;;4996218;28;20505;-75
2023/09/01 10:18:02;;;;;;;2.47;1.50;;;21.80;99.90;;;;;;4993197;28;20609;-69
2023/09/01 10:20:30;;;;;;;2.57;1.30;;;21.60;99.90;;;;;;4995650;28;20460;-69
2023/09/01 10:22:57;;;;;;;1.80;1.10;;;21.70;99.90;;;;;;4998575;28;20503;-68
2023/09/01 10:25:26;;;;;;;2.50;1.43;;;21.80;99.90;;;;;;4990797;28;20585;-67
2023/09/01 10:28:07;;;;;;;3.30;1.23;;;21.70;99.90;;;;;;4996118;28;20465;-67
2023/09/01 10:30:35;;;;;;;5.07;1.10;;;21.60;99.90;;;;;;4996823;28;20816;-70
2023/09/01 10:33:10;;;;;;;2.63;1.00;;;21.60;99.90;;;;;;4988662;28;20585;-67
2023/09/01 10:35:38;;;;;;;2.20;1.20;;;21.60;99.90;;;;;;4982845;28;20564;-68
2023/09/01 10:38:17;;;;;;;2.30;1.33;;;21.40;99.90;;;;;;4991759;28;20490;-69
2023/09/01 10:40:47;;;;;;;1.70;1.00;;;21.50;99.90;;;;;;4986146;28;20858;-68
2023/09/01 10:43:34;;;;;;;1.73;1.00;;;21.70;99.90;;;;;;4973953;28;21051;-68
2023/09/01 10:46:26;;;;;;;2.70;1.30;;;21.90;99.90;;;;;;4981006;28;20921;-65
2023/09/01 10:48:55;;;;;;;3.20;1.00;;;22.00;99.90;;;;;;4991689;28;20620;-66
2023/09/01 10:51:25;;;;;;;1.70;0.70;;;22.30;99.90;;;;;;4989444;28;20456;-67
2023/09/01 10:53:53;;;;;;;1.80;1.07;;;22.50;99.90;;;;;;4989350;28;20473;-66
2023/09/01 10:56:21;;;;;;;2.43;1.10;;;22.60;99.90;;;;;;4984843;28;20512;-69
2023/09/01 10:58:50;;;;;;;1.60;0.80;;;22.30;99.90;;;;;;4994877;28;20577;-68
2023/09/01 11:01:31;;;;;;;1.70;0.70;;;22.50;99.90;;;;;;4983277;28;20488;-66
2023/09/01 11:04:32;;;;;;;2.00;0.80;;;22.70;99.90;;;;;;4990048;28;20491;-70
2023/09/01 11:07:07;;;;;;;1.80;0.83;;;22.80;99.90;;;;;;4994000;28;20473;-67
2023/09/01 11:09:49;;;;;;;1.80;0.80;;;23.10;99.90;;;;;;4988705;28;20490;-69
2023/09/01 11:12:18;;;;;;;2.57;1.17;;;22.90;99.90;;;;;;4976629;28;21280;-68
2023/09/01 11:14:57;;;;;;;2.37;0.70;;;22.70;99.90;;;;;;4986144;28;20451;-70
2023/09/01 11:17:49;;;;;;;1.87;0.70;;;22.50;99.90;;;;;;4981175;28;20455;-69
2023/09/01 11:20:19;;;;;;;1.87;0.70;;;22.50;99.90;;;;;;4969704;28;20475;-68
2023/09/01 11:22:46;;;;;;;2.70;0.63;;;22.40;99.90;;;;;;4974837;28;20501;-68
2023/09/01 11:25:14;;;;;;;2.10;0.93;;;22.30;99.90;;;;;;5003130;28;20484;-69
2023/09/01 11:27:47;;;;;;;2.63;0.93;;;22.10;99.90;;;;;;4996939;28;20451;-69
2023/09/01 11:30:17;;;;;;;2.00;0.80;;;22.20;99.90;;;;;;4986034;28;20484;-70
2023/09/01 11:32:44;;;;;;;2.40;0.67;;;22.20;99.90;;;;;;4993321;28;20496;-68
2023/09/01 11:35:22;;;;;;;2.10;0.83;;;22.20;99.90;;;;;;4987545;28;20464;-68
2023/09/01 11:37:49;;;;;;;1.77;0.70;;;22.20;99.90;;;;;;4996640;28;20453;-69
2023/09/01 11:40:19;;;;;;;1.60;0.77;;;22.20;99.90;;;;;;4990305;28;20454;-68
2023/09/01 11:42:47;;;;;;;1.60;0.70;;;22.30;99.90;;;;;;4981777;28;20474;-68
2023/09/01 11:45:14;;;;;;;1.90;1.07;;;22.30;99.90;;;;;;4991587;28;20458;-67
2023/09/01 11:47:41;;;;;;;1.90;0.90;;;22.30;99.90;;;;;;4998118;28;21093;-68
2023/09/01 11:50:13;;;;;;;1.80;1.00;;;22.30;99.90;;;;;;4982507;28;20489;-69
2023/09/01 11:52:57;;;;;;;2.10;0.80;;;22.20;99.90;;;;;;4987335;28;20462;-69
2023/09/01 11:55:31;;;;;;;1.63;0.77;;;22.30;99.90;;;;;;4978090;28;20441;-68
2023/09/01 11:57:59;;;;;;;1.63;0.63;;;22.30;99.90;;;;;;4990786;28;20446;-74
2023/09/01 12:00:31;;;;;;;1.50;0.60;;;22.30;99.90;;;;;;4982611;28;20490;-71
2023/09/01 12:03:00;;;;;;;2.90;0.80;;;22.30;99.90;;;;;;4987947;28;20498;-70
2023/09/01 12:05:31;;;;;;;2.83;0.83;;;22.30;99.90;;;;;;4994067;28;20481;-68
2023/09/01 12:07:59;;;;;;;1.80;0.70;;;22.30;99.90;;;;;;4983083;28;21000;-69
2023/09/01 12:10:25;;;;;;;1.60;0.70;;;22.40;99.90;;;;;;5004945;28;20974;-70
2023/09/01 12:13:07;;;;;;;1.93;0.70;;;22.40;99.90;;;;;;4988802;28;20474;-73
2023/09/01 12:15:34;;;;;;;2.20;0.70;;;22.50;99.90;;;;;;4988705;28;20466;-71
2023/09/01 12:18:33;;;;;;;1.67;0.60;;;22.70;99.90;;;;;;4991254;28;20496;-70
2023/09/01 12:21:00;;;;;;;1.60;0.70;;;22.80;99.90;;;;;;4977235;28;20857;-70
2023/09/01 12:23:28;;;;;;;3.40;0.70;;;23.00;99.90;;;;;;4990476;28;21190;-74
2023/09/01 12:25:55;;;;;;;3.80;0.70;;;23.10;99.90;;;;;;4984105;28;20510;-73
2023/09/01 12:28:25;;;;;;;1.90;0.70;;;23.00;99.90;;;;;;4984214;28;20474;-70
2023/09/01 12:30:52;;;;;;;1.60;0.60;;;23.00;99.90;;;;;;4996316;28;20484;-69
2023/09/01 12:33:19;;;;;;;1.80;0.80;;;23.10;99.90;;;;;;4995448;28;20912;-71
2023/09/01 12:35:46;;;;;;;2.33;0.70;;;23.10;99.90;;;;;;4979255;28;20869;-74
2023/09/01 12:38:12;;;;;;;1.83;0.93;;;23.20;99.90;;;;;;5002764;28;20475;-71
2023/09/01 12:40:39;;;;;;;1.60;0.70;;;23.30;99.90;;;;;;4985288;28;20795;-71
2023/09/01 12:43:06;;;;;;;2.43;0.63;;;23.30;99.90;;;;;;4984518;28;20479;-70
2023/09/01 12:45:35;;;;;;;3.10;0.70;;;23.30;99.90;;;;;;4978934;28;21144;-67
2023/09/01 12:48:02;;;;;;;1.67;0.73;;;23.20;99.90;;;;;;4992504;28;20463;-68
2023/09/01 12:50:29;;;;;;;1.60;0.70;;;23.20;99.90;;;;;;4984416;28;20460;-67
2023/09/01 12:52:56;;;;;;;3.13;0.70;;;23.20;99.90;;;;;;4981794;28;20580;-67
2023/09/01 12:55:24;;;;;;;1.70;0.80;;;23.10;99.90;;;;;;4998221;28;20454;-68